Portada
METAR-TAF:

METAR-TAF

Aeroports :

Magnitogorsk, Rússia

latitud: 53-23-36N, longitud: 058-45-24E, altitud: 436 m

Observació

L'informe es va fer fa 26 minuts, a les 09:00 UTC
Vent 8 kt del Nord-Oest, variant entre Oest i Nord
Temperatura 22°C
Humitat 41%
Pressió 1015 hPa
Visibilitat 10 km o més
Cel ennuvolat a una alçada de 4000 ft

METAR: USCM 020900Z 31004MPS 260V360 9999 BKN040 22/08 Q1015 R18/090060 NOSIG RMK QFE724

Hora: 14:26 (09:26 UTC)

Pronòstic

L'informe es va fer fa 1 hora i 26 minuts, a les 08:00 UTC
Pronòstic vàlid del 02 a les 09 UTC al 02 a les 18 UTC
Vent 6 kt del Nord amb ràfegues de 19 kt
Visibilitat 10 km o més
Cel ennuvolat a una alçada de 3000 ft, Cumulonimbus.
Temporalment
l' 02 a les 09 UTC al 02 a les 18 UTC
Vent 10 kt del Nord/Nord-Oest amb ràfegues de 27 kt
Cel ennuvolat a una alçada de 1600 ft, Cumulonimbus.
xàfecs de pluja

TAF: USCM 020800Z 0209/0218 01003G10MPS 9999 BKN030CB TEMPO 0209/0218 33005G14MPS -SHRA BKN016CB

Observacions i pronòstics meteorològics de més de 4000 aeroports (METAR i TAF).

Les estacions disponibles són els punts grocs i vermells al mapa.

Posi el ratolí al punt desitjat per veure el nom de l'estació.

Feu clic per veure les observacions i els pronòstics meteorològics.

Per canviar el mapa: feu clic els botons verds amb una creu de color negre per apropar; al botó verd amb un guió per allunyar la imatge; o en les fletxes verdes per a mapes adjacents.


METAR-TAF: